sensor_id;sensor_type;location;lat;lon;timestamp;P1;durP1;ratioP1;P2;durP2;ratioP2
13230;SDS011;6681;53.254;10.398;2023-10-09T00:01:02;3.20;;;1.70;;
13230;SDS011;6681;53.254;10.398;2023-10-09T00:03:30;3.90;;;2.23;;
13230;SDS011;6681;53.254;10.398;2023-10-09T00:05:56;1.77;;;1.43;;
13230;SDS011;6681;53.254;10.398;2023-10-09T00:08:22;5.10;;;1.33;;
13230;SDS011;6681;53.254;10.398;2023-10-09T00:11:10;2.30;;;1.20;;
13230;SDS011;6681;53.254;10.398;2023-10-09T00:13:42;3.73;;;1.50;;
13230;SDS011;6681;53.254;10.398;2023-10-09T00:16:18;2.63;;;1.10;;
13230;SDS011;6681;53.254;10.398;2023-10-09T00:18:58;3.87;;;1.13;;
13230;SDS011;6681;53.254;10.398;2023-10-09T00:21:39;2.37;;;1.33;;
13230;SDS011;6681;53.254;10.398;2023-10-09T00:24:05;4.00;;;1.47;;
13230;SDS011;6681;53.254;10.398;2023-10-09T00:26:38;2.80;;;1.23;;
13230;SDS011;6681;53.254;10.398;2023-10-09T00:29:09;8.63;;;1.07;;
13230;SDS011;6681;53.254;10.398;2023-10-09T00:31:40;1.70;;;1.13;;
13230;SDS011;6681;53.254;10.398;2023-10-09T00:34:15;2.53;;;1.30;;
13230;SDS011;6681;53.254;10.398;2023-10-09T00:36:47;2.57;;;1.33;;
13230;SDS011;6681;53.254;10.398;2023-10-09T00:39:19;2.93;;;1.87;;
13230;SDS011;6681;53.254;10.398;2023-10-09T00:42:01;5.40;;;1.53;;
13230;SDS011;6681;53.254;10.398;2023-10-09T00:44:28;2.10;;;1.37;;
13230;SDS011;6681;53.254;10.398;2023-10-09T00:47:08;6.27;;;1.73;;
13230;SDS011;6681;53.254;10.398;2023-10-09T00:49:54;4.17;;;1.80;;
13230;SDS011;6681;53.254;10.398;2023-10-09T00:52:52;6.43;;;2.80;;
13230;SDS011;6681;53.254;10.398;2023-10-09T00:55:26;2.10;;;1.63;;
13230;SDS011;6681;53.254;10.398;2023-10-09T00:58:02;2.83;;;1.60;;
13230;SDS011;6681;53.254;10.398;2023-10-09T01:00:43;4.13;;;1.83;;
13230;SDS011;6681;53.254;10.398;2023-10-09T01:03:09;4.63;;;2.57;;
13230;SDS011;6681;53.254;10.398;2023-10-09T01:05:50;4.10;;;1.60;;
13230;SDS011;6681;53.254;10.398;2023-10-09T01:08:39;3.70;;;2.07;;
13230;SDS011;6681;53.254;10.398;2023-10-09T01:11:06;6.43;;;1.53;;
13230;SDS011;6681;53.254;10.398;2023-10-09T01:13:39;3.80;;;1.30;;
13230;SDS011;6681;53.254;10.398;2023-10-09T01:16:11;8.43;;;3.23;;
13230;SDS011;6681;53.254;10.398;2023-10-09T01:18:47;1.20;;;1.10;;
13230;SDS011;6681;53.254;10.398;2023-10-09T01:21:18;6.27;;;1.93;;
13230;SDS011;6681;53.254;10.398;2023-10-09T01:23:49;4.60;;;1.37;;
13230;SDS011;6681;53.254;10.398;2023-10-09T01:26:30;3.17;;;2.10;;
13230;SDS011;6681;53.254;10.398;2023-10-09T01:29:04;1.77;;;1.50;;
13230;SDS011;6681;53.254;10.398;2023-10-09T01:31:39;2.50;;;2.20;;
13230;SDS011;6681;53.254;10.398;2023-10-09T01:34:11;4.50;;;2.07;;
13230;SDS011;6681;53.254;10.398;2023-10-09T01:36:38;3.20;;;1.50;;
13230;SDS011;6681;53.254;10.398;2023-10-09T01:39:04;2.70;;;1.70;;
13230;SDS011;6681;53.254;10.398;2023-10-09T01:41:50;2.60;;;1.60;;
13230;SDS011;6681;53.254;10.398;2023-10-09T01:44:24;6.53;;;1.80;;
13230;SDS011;6681;53.254;10.398;2023-10-09T01:46:59;4.77;;;2.20;;
13230;SDS011;6681;53.254;10.398;2023-10-09T01:49:25;4.70;;;2.20;;
13230;SDS011;6681;53.254;10.398;2023-10-09T01:51:57;3.70;;;1.50;;
13230;SDS011;6681;53.254;10.398;2023-10-09T01:54:35;1.77;;;1.63;;
13230;SDS011;6681;53.254;10.398;2023-10-09T01:57:05;6.60;;;1.70;;
13230;SDS011;6681;53.254;10.398;2023-10-09T01:59:35;6.73;;;1.90;;
13230;SDS011;6681;53.254;10.398;2023-10-09T02:02:08;4.97;;;2.20;;
13230;SDS011;6681;53.254;10.398;2023-10-09T02:07:48;5.07;;;1.27;;
13230;SDS011;6681;53.254;10.398;2023-10-09T02:10:17;3.30;;;1.47;;
13230;SDS011;6681;53.254;10.398;2023-10-09T02:13:05;2.83;;;1.73;;
13230;SDS011;6681;53.254;10.398;2023-10-09T02:15:32;3.57;;;2.77;;
13230;SDS011;6681;53.254;10.398;2023-10-09T02:18:11;4.13;;;1.80;;
13230;SDS011;6681;53.254;10.398;2023-10-09T02:21:12;4.30;;;2.63;;
13230;SDS011;6681;53.254;10.398;2023-10-09T02:23:38;3.50;;;1.73;;
13230;SDS011;6681;53.254;10.398;2023-10-09T02:26:06;3.43;;;1.47;;
13230;SDS011;6681;53.254;10.398;2023-10-09T02:28:33;3.63;;;1.70;;
13230;SDS011;6681;53.254;10.398;2023-10-09T02:31:00;7.70;;;2.33;;
13230;SDS011;6681;53.254;10.398;2023-10-09T02:33:34;6.00;;;2.97;;
13230;SDS011;6681;53.254;10.398;2023-10-09T02:36:01;2.00;;;1.83;;
13230;SDS011;6681;53.254;10.398;2023-10-09T02:38:33;1.97;;;1.77;;
13230;SDS011;6681;53.254;10.398;2023-10-09T02:41:02;2.63;;;1.23;;
13230;SDS011;6681;53.254;10.398;2023-10-09T02:43:31;2.00;;;1.30;;
13230;SDS011;6681;53.254;10.398;2023-10-09T02:46:15;7.03;;;1.90;;
13230;SDS011;6681;53.254;10.398;2023-10-09T02:48:46;6.23;;;2.47;;
13230;SDS011;6681;53.254;10.398;2023-10-09T02:51:19;4.33;;;1.83;;
13230;SDS011;6681;53.254;10.398;2023-10-09T02:53:59;3.53;;;1.50;;
13230;SDS011;6681;53.254;10.398;2023-10-09T02:56:50;4.50;;;2.07;;
13230;SDS011;6681;53.254;10.398;2023-10-09T02:59:41;5.10;;;1.80;;
13230;SDS011;6681;53.254;10.398;2023-10-09T03:02:07;4.33;;;1.40;;
13230;SDS011;6681;53.254;10.398;2023-10-09T03:04:33;2.00;;;1.57;;
13230;SDS011;6681;53.254;10.398;2023-10-09T03:07:02;3.63;;;1.40;;
13230;SDS011;6681;53.254;10.398;2023-10-09T03:09:29;6.93;;;1.80;;
13230;SDS011;6681;53.254;10.398;2023-10-09T03:11:59;2.53;;;1.27;;
13230;SDS011;6681;53.254;10.398;2023-10-09T03:14:31;2.13;;;1.23;;
13230;SDS011;6681;53.254;10.398;2023-10-09T03:17:00;4.40;;;1.43;;
13230;SDS011;6681;53.254;10.398;2023-10-09T03:19:27;4.40;;;1.87;;
13230;SDS011;6681;53.254;10.398;2023-10-09T03:21:53;4.20;;;1.40;;
13230;SDS011;6681;53.254;10.398;2023-10-09T03:24:22;4.53;;;2.07;;
13230;SDS011;6681;53.254;10.398;2023-10-09T03:26:49;4.20;;;1.63;;
13230;SDS011;6681;53.254;10.398;2023-10-09T03:29:14;5.20;;;1.60;;
13230;SDS011;6681;53.254;10.398;2023-10-09T03:31:40;3.80;;;2.17;;
13230;SDS011;6681;53.254;10.398;2023-10-09T03:34:08;4.53;;;1.73;;
13230;SDS011;6681;53.254;10.398;2023-10-09T03:36:35;3.90;;;1.47;;
13230;SDS011;6681;53.254;10.398;2023-10-09T03:39:04;5.43;;;1.77;;
13230;SDS011;6681;53.254;10.398;2023-10-09T03:41:50;2.30;;;1.73;;
13230;SDS011;6681;53.254;10.398;2023-10-09T03:44:16;3.50;;;1.80;;
13230;SDS011;6681;53.254;10.398;2023-10-09T03:46:45;2.17;;;1.30;;
13230;SDS011;6681;53.254;10.398;2023-10-09T03:49:11;1.93;;;1.53;;
13230;SDS011;6681;53.254;10.398;2023-10-09T03:51:39;2.37;;;1.53;;
13230;SDS011;6681;53.254;10.398;2023-10-09T03:54:05;2.17;;;1.23;;
13230;SDS011;6681;53.254;10.398;2023-10-09T03:56:34;3.27;;;1.33;;
13230;SDS011;6681;53.254;10.398;2023-10-09T03:59:00;5.93;;;2.10;;
13230;SDS011;6681;53.254;10.398;2023-10-09T04:01:27;2.03;;;1.80;;
13230;SDS011;6681;53.254;10.398;2023-10-09T04:04:03;4.33;;;1.73;;
13230;SDS011;6681;53.254;10.398;2023-10-09T04:06:35;3.47;;;1.83;;
13230;SDS011;6681;53.254;10.398;2023-10-09T04:11:40;3.13;;;1.23;;
13230;SDS011;6681;53.254;10.398;2023-10-09T04:14:11;1.93;;;1.23;;
13230;SDS011;6681;53.254;10.398;2023-10-09T04:16:47;2.43;;;1.50;;
13230;SDS011;6681;53.254;10.398;2023-10-09T04:19:29;2.27;;;1.30;;
13230;SDS011;6681;53.254;10.398;2023-10-09T04:22:03;5.57;;;1.73;;
13230;SDS011;6681;53.254;10.398;2023-10-09T04:24:34;2.77;;;2.50;;
13230;SDS011;6681;53.254;10.398;2023-10-09T04:27:09;1.90;;;1.40;;
13230;SDS011;6681;53.254;10.398;2023-10-09T04:29:35;3.30;;;1.77;;
13230;SDS011;6681;53.254;10.398;2023-10-09T04:32:04;4.40;;;1.90;;
13230;SDS011;6681;53.254;10.398;2023-10-09T04:34:33;4.23;;;2.30;;
13230;SDS011;6681;53.254;10.398;2023-10-09T04:37:13;6.87;;;2.27;;
13230;SDS011;6681;53.254;10.398;2023-10-09T04:39:42;3.60;;;1.57;;
13230;SDS011;6681;53.254;10.398;2023-10-09T04:42:12;3.23;;;1.83;;
13230;SDS011;6681;53.254;10.398;2023-10-09T04:44:49;5.60;;;1.83;;
13230;SDS011;6681;53.254;10.398;2023-10-09T04:47:36;4.43;;;2.93;;
13230;SDS011;6681;53.254;10.398;2023-10-09T04:50:03;7.77;;;1.70;;
13230;SDS011;6681;53.254;10.398;2023-10-09T04:52:33;7.67;;;2.20;;
13230;SDS011;6681;53.254;10.398;2023-10-09T04:54:59;4.83;;;2.30;;
13230;SDS011;6681;53.254;10.398;2023-10-09T05:00:14;5.53;;;2.60;;
13230;SDS011;6681;53.254;10.398;2023-10-09T05:02:50;5.17;;;2.33;;
13230;SDS011;6681;53.254;10.398;2023-10-09T05:05:33;1.87;;;1.50;;
13230;SDS011;6681;53.254;10.398;2023-10-09T05:08:08;1.93;;;1.23;;
13230;SDS011;6681;53.254;10.398;2023-10-09T05:10:58;2.30;;;1.90;;
13230;SDS011;6681;53.254;10.398;2023-10-09T05:13:29;3.53;;;1.60;;
13230;SDS011;6681;53.254;10.398;2023-10-09T05:18:47;4.37;;;2.10;;
13230;SDS011;6681;53.254;10.398;2023-10-09T05:21:37;3.43;;;1.50;;
13230;SDS011;6681;53.254;10.398;2023-10-09T05:24:07;3.70;;;1.30;;
13230;SDS011;6681;53.254;10.398;2023-10-09T05:29:11;3.10;;;1.47;;
13230;SDS011;6681;53.254;10.398;2023-10-09T05:31:59;2.73;;;1.93;;
13230;SDS011;6681;53.254;10.398;2023-10-09T05:34:40;3.83;;;1.57;;
13230;SDS011;6681;53.254;10.398;2023-10-09T05:37:25;3.27;;;1.00;;
13230;SDS011;6681;53.254;10.398;2023-10-09T05:39:57;3.10;;;1.30;;
13230;SDS011;6681;53.254;10.398;2023-10-09T05:42:42;3.53;;;1.30;;
13230;SDS011;6681;53.254;10.398;2023-10-09T05:45:09;5.07;;;1.77;;
13230;SDS011;6681;53.254;10.398;2023-10-09T05:47:43;2.60;;;1.70;;
13230;SDS011;6681;53.254;10.398;2023-10-09T05:50:16;2.67;;;1.50;;
13230;SDS011;6681;53.254;10.398;2023-10-09T05:52:42;1.53;;;1.23;;
13230;SDS011;6681;53.254;10.398;2023-10-09T05:55:29;3.37;;;2.13;;
13230;SDS011;6681;53.254;10.398;2023-10-09T05:58:14;2.80;;;1.87;;
13230;SDS011;6681;53.254;10.398;2023-10-09T06:00:58;4.43;;;1.60;;
13230;SDS011;6681;53.254;10.398;2023-10-09T06:03:42;1.60;;;1.43;;
13230;SDS011;6681;53.254;10.398;2023-10-09T06:06:17;3.40;;;2.03;;
13230;SDS011;6681;53.254;10.398;2023-10-09T06:09:05;4.77;;;1.93;;
13230;SDS011;6681;53.254;10.398;2023-10-09T06:11:53;4.03;;;1.73;;
13230;SDS011;6681;53.254;10.398;2023-10-09T06:14:19;4.47;;;2.10;;
13230;SDS011;6681;53.254;10.398;2023-10-09T06:16:55;3.30;;;2.37;;
13230;SDS011;6681;53.254;10.398;2023-10-09T06:19:22;1.93;;;1.73;;
13230;SDS011;6681;53.254;10.398;2023-10-09T06:21:55;2.73;;;1.70;;
13230;SDS011;6681;53.254;10.398;2023-10-09T06:24:37;5.63;;;1.80;;
13230;SDS011;6681;53.254;10.398;2023-10-09T06:27:07;3.33;;;2.50;;
13230;SDS011;6681;53.254;10.398;2023-10-09T06:29:37;3.33;;;2.57;;
13230;SDS011;6681;53.254;10.398;2023-10-09T06:32:16;5.13;;;1.77;;
13230;SDS011;6681;53.254;10.398;2023-10-09T06:34:43;4.30;;;2.17;;
13230;SDS011;6681;53.254;10.398;2023-10-09T06:37:11;3.30;;;2.13;;
13230;SDS011;6681;53.254;10.398;2023-10-09T06:40:03;3.80;;;2.13;;
13230;SDS011;6681;53.254;10.398;2023-10-09T06:42:47;4.00;;;1.60;;
13230;SDS011;6681;53.254;10.398;2023-10-09T06:45:16;2.73;;;2.53;;
13230;SDS011;6681;53.254;10.398;2023-10-09T06:47:42;5.77;;;2.63;;
13230;SDS011;6681;53.254;10.398;2023-10-09T06:50:29;3.03;;;1.87;;
13230;SDS011;6681;53.254;10.398;2023-10-09T06:53:30;3.77;;;1.80;;
13230;SDS011;6681;53.254;10.398;2023-10-09T06:56:14;2.90;;;2.10;;
13230;SDS011;6681;53.254;10.398;2023-10-09T06:58:58;4.03;;;1.73;;
13230;SDS011;6681;53.254;10.398;2023-10-09T07:01:24;2.93;;;2.00;;
13230;SDS011;6681;53.254;10.398;2023-10-09T07:03:50;4.80;;;2.17;;
13230;SDS011;6681;53.254;10.398;2023-10-09T07:06:19;7.57;;;2.90;;
13230;SDS011;6681;53.254;10.398;2023-10-09T07:08:55;2.50;;;2.00;;
13230;SDS011;6681;53.254;10.398;2023-10-09T07:11:54;3.23;;;2.03;;
13230;SDS011;6681;53.254;10.398;2023-10-09T07:14:23;3.00;;;2.10;;
13230;SDS011;6681;53.254;10.398;2023-10-09T07:16:58;5.20;;;3.00;;
13230;SDS011;6681;53.254;10.398;2023-10-09T07:19:41;4.97;;;2.83;;
13230;SDS011;6681;53.254;10.398;2023-10-09T07:22:10;6.23;;;3.63;;
13230;SDS011;6681;53.254;10.398;2023-10-09T07:24:46;4.63;;;2.97;;
13230;SDS011;6681;53.254;10.398;2023-10-09T07:27:21;6.80;;;3.30;;
13230;SDS011;6681;53.254;10.398;2023-10-09T07:30:08;4.60;;;2.93;;
13230;SDS011;6681;53.254;10.398;2023-10-09T07:33:00;4.10;;;3.50;;
13230;SDS011;6681;53.254;10.398;2023-10-09T07:35:35;6.30;;;3.60;;
13230;SDS011;6681;53.254;10.398;2023-10-09T07:40:53;3.60;;;3.30;;
13230;SDS011;6681;53.254;10.398;2023-10-09T07:43:36;5.83;;;3.17;;
13230;SDS011;6681;53.254;10.398;2023-10-09T07:46:18;3.53;;;3.20;;
13230;SDS011;6681;53.254;10.398;2023-10-09T07:49:03;6.70;;;2.67;;
13230;SDS011;6681;53.254;10.398;2023-10-09T07:51:39;3.40;;;3.10;;
13230;SDS011;6681;53.254;10.398;2023-10-09T07:54:09;3.43;;;3.13;;
13230;SDS011;6681;53.254;10.398;2023-10-09T07:56:39;3.20;;;2.87;;
13230;SDS011;6681;53.254;10.398;2023-10-09T07:59:09;4.40;;;4.00;;
13230;SDS011;6681;53.254;10.398;2023-10-09T08:01:37;5.90;;;3.33;;
13230;SDS011;6681;53.254;10.398;2023-10-09T08:04:20;6.73;;;3.53;;
13230;SDS011;6681;53.254;10.398;2023-10-09T08:07:09;3.30;;;3.00;;
13230;SDS011;6681;53.254;10.398;2023-10-09T08:09:51;2.53;;;2.23;;
13230;SDS011;6681;53.254;10.398;2023-10-09T08:12:35;4.57;;;3.43;;
13230;SDS011;6681;53.254;10.398;2023-10-09T08:15:13;3.10;;;2.80;;
13230;SDS011;6681;53.254;10.398;2023-10-09T08:17:56;3.33;;;2.70;;
13230;SDS011;6681;53.254;10.398;2023-10-09T08:20:43;4.07;;;3.47;;
13230;SDS011;6681;53.254;10.398;2023-10-09T08:23:27;3.43;;;3.10;;
13230;SDS011;6681;53.254;10.398;2023-10-09T08:26:13;3.83;;;2.87;;
13230;SDS011;6681;53.254;10.398;2023-10-09T08:28:42;3.67;;;3.47;;
13230;SDS011;6681;53.254;10.398;2023-10-09T08:31:12;5.07;;;4.17;;
13230;SDS011;6681;53.254;10.398;2023-10-09T08:33:59;4.10;;;3.30;;
13230;SDS011;6681;53.254;10.398;2023-10-09T08:36:26;4.87;;;3.40;;
13230;SDS011;6681;53.254;10.398;2023-10-09T08:39:04;3.47;;;2.73;;
13230;SDS011;6681;53.254;10.398;2023-10-09T08:41:42;5.07;;;4.07;;
13230;SDS011;6681;53.254;10.398;2023-10-09T08:44:08;4.43;;;4.03;;
13230;SDS011;6681;53.254;10.398;2023-10-09T08:46:40;3.47;;;3.17;;
13230;SDS011;6681;53.254;10.398;2023-10-09T08:49:07;5.30;;;4.17;;
13230;SDS011;6681;53.254;10.398;2023-10-09T08:51:35;4.23;;;3.70;;
13230;SDS011;6681;53.254;10.398;2023-10-09T08:54:02;6.70;;;4.40;;
13230;SDS011;6681;53.254;10.398;2023-10-09T08:56:29;4.47;;;4.03;;
13230;SDS011;6681;53.254;10.398;2023-10-09T08:58:56;4.60;;;4.13;;
13230;SDS011;6681;53.254;10.398;2023-10-09T09:01:23;4.33;;;3.93;;
13230;SDS011;6681;53.254;10.398;2023-10-09T09:03:50;4.20;;;3.80;;
13230;SDS011;6681;53.254;10.398;2023-10-09T09:06:19;5.23;;;4.73;;
13230;SDS011;6681;53.254;10.398;2023-10-09T09:08:46;5.33;;;4.80;;
13230;SDS011;6681;53.254;10.398;2023-10-09T09:11:16;7.10;;;5.73;;
13230;SDS011;6681;53.254;10.398;2023-10-09T09:16:24;7.33;;;5.53;;
13230;SDS011;6681;53.254;10.398;2023-10-09T09:18:56;5.27;;;4.03;;
13230;SDS011;6681;53.254;10.398;2023-10-09T09:21:26;7.07;;;4.97;;
13230;SDS011;6681;53.254;10.398;2023-10-09T09:23:53;8.13;;;5.60;;
13230;SDS011;6681;53.254;10.398;2023-10-09T09:26:36;7.57;;;4.90;;
13230;SDS011;6681;53.254;10.398;2023-10-09T09:29:03;6.53;;;5.47;;
13230;SDS011;6681;53.254;10.398;2023-10-09T09:31:30;5.43;;;4.40;;
13230;SDS011;6681;53.254;10.398;2023-10-09T09:34:03;8.87;;;6.30;;
13230;SDS011;6681;53.254;10.398;2023-10-09T09:36:34;9.70;;;7.00;;
13230;SDS011;6681;53.254;10.398;2023-10-09T09:39:00;5.70;;;5.17;;
13230;SDS011;6681;53.254;10.398;2023-10-09T09:41:26;6.33;;;5.17;;
13230;SDS011;6681;53.254;10.398;2023-10-09T09:43:54;7.30;;;6.33;;
13230;SDS011;6681;53.254;10.398;2023-10-09T09:46:35;5.80;;;5.00;;
13230;SDS011;6681;53.254;10.398;2023-10-09T09:49:05;8.70;;;6.23;;
13230;SDS011;6681;53.254;10.398;2023-10-09T09:51:41;8.53;;;6.07;;
13230;SDS011;6681;53.254;10.398;2023-10-09T09:54:11;6.83;;;6.13;;
13230;SDS011;6681;53.254;10.398;2023-10-09T09:56:40;6.80;;;6.10;;
13230;SDS011;6681;53.254;10.398;2023-10-09T09:59:15;6.50;;;5.80;;
13230;SDS011;6681;53.254;10.398;2023-10-09T10:01:52;6.87;;;5.50;;
13230;SDS011;6681;53.254;10.398;2023-10-09T10:04:26;5.50;;;4.83;;
13230;SDS011;6681;53.254;10.398;2023-10-09T10:06:58;5.30;;;4.77;;
13230;SDS011;6681;53.254;10.398;2023-10-09T10:09:34;5.50;;;4.90;;
13230;SDS011;6681;53.254;10.398;2023-10-09T10:12:04;7.77;;;4.53;;
13230;SDS011;6681;53.254;10.398;2023-10-09T10:18:13;4.80;;;3.97;;
13230;SDS011;6681;53.254;10.398;2023-10-09T10:20:58;5.33;;;4.20;;
13230;SDS011;6681;53.254;10.398;2023-10-09T10:23:59;5.63;;;4.93;;
13230;SDS011;6681;53.254;10.398;2023-10-09T10:26:31;6.57;;;4.97;;
13230;SDS011;6681;53.254;10.398;2023-10-09T10:31:51;3.97;;;3.33;;
13230;SDS011;6681;53.254;10.398;2023-10-09T10:34:21;6.33;;;4.17;;
13230;SDS011;6681;53.254;10.398;2023-10-09T10:36:49;3.67;;;3.23;;
13230;SDS011;6681;53.254;10.398;2023-10-09T10:39:23;6.33;;;3.87;;
13230;SDS011;6681;53.254;10.398;2023-10-09T10:42:07;3.93;;;3.37;;
13230;SDS011;6681;53.254;10.398;2023-10-09T10:44:58;3.60;;;3.17;;
13230;SDS011;6681;53.254;10.398;2023-10-09T10:47:27;5.03;;;3.40;;
13230;SDS011;6681;53.254;10.398;2023-10-09T10:50:00;6.70;;;3.20;;
13230;SDS011;6681;53.254;10.398;2023-10-09T10:52:46;2.23;;;2.03;;
13230;SDS011;6681;53.254;10.398;2023-10-09T10:55:22;2.80;;;1.60;;
13230;SDS011;6681;53.254;10.398;2023-10-09T10:57:54;3.60;;;2.23;;
13230;SDS011;6681;53.254;10.398;2023-10-09T11:00:27;4.13;;;1.87;;
13230;SDS011;6681;53.254;10.398;2023-10-09T11:03:21;2.03;;;1.83;;
13230;SDS011;6681;53.254;10.398;2023-10-09T11:06:01;2.60;;;2.33;;
13230;SDS011;6681;53.254;10.398;2023-10-09T11:08:58;1.30;;;1.10;;
13230;SDS011;6681;53.254;10.398;2023-10-09T11:11:33;1.53;;;1.43;;
13230;SDS011;6681;53.254;10.398;2023-10-09T11:14:12;1.27;;;1.17;;
13230;SDS011;6681;53.254;10.398;2023-10-09T11:16:48;2.07;;;1.97;;
13230;SDS011;6681;53.254;10.398;2023-10-09T11:19:19;1.63;;;1.53;;
13230;SDS011;6681;53.254;10.398;2023-10-09T11:21:58;1.40;;;1.30;;
13230;SDS011;6681;53.254;10.398;2023-10-09T11:24:31;1.73;;;1.30;;
13230;SDS011;6681;53.254;10.398;2023-10-09T11:26:59;1.73;;;1.63;;
13230;SDS011;6681;53.254;10.398;2023-10-09T11:29:30;1.40;;;1.30;;
13230;SDS011;6681;53.254;10.398;2023-10-09T11:32:13;1.50;;;1.40;;
13230;SDS011;6681;53.254;10.398;2023-10-09T11:34:47;1.83;;;1.73;;
13230;SDS011;6681;53.254;10.398;2023-10-09T11:37:17;1.43;;;1.37;;
13230;SDS011;6681;53.254;10.398;2023-10-09T11:39:56;1.57;;;0.93;;
13230;SDS011;6681;53.254;10.398;2023-10-09T11:42:28;1.53;;;1.43;;
13230;SDS011;6681;53.254;10.398;2023-10-09T11:45:20;3.63;;;1.90;;
13230;SDS011;6681;53.254;10.398;2023-10-09T11:47:50;4.13;;;1.93;;
13230;SDS011;6681;53.254;10.398;2023-10-09T11:53:08;1.17;;;1.07;;
13230;SDS011;6681;53.254;10.398;2023-10-09T11:55:57;0.97;;;0.90;;
13230;SDS011;6681;53.254;10.398;2023-10-09T11:58:23;1.00;;;1.00;;
13230;SDS011;6681;53.254;10.398;2023-10-09T12:00:55;1.40;;;1.37;;
13230;SDS011;6681;53.254;10.398;2023-10-09T12:03:27;1.43;;;1.33;;
13230;SDS011;6681;53.254;10.398;2023-10-09T12:06:01;1.10;;;0.97;;
13230;SDS011;6681;53.254;10.398;2023-10-09T12:08:33;0.80;;;0.80;;
13230;SDS011;6681;53.254;10.398;2023-10-09T12:11:00;1.23;;;1.23;;
13230;SDS011;6681;53.254;10.398;2023-10-09T12:13:33;1.17;;;1.00;;
13230;SDS011;6681;53.254;10.398;2023-10-09T12:15:59;1.83;;;1.40;;
13230;SDS011;6681;53.254;10.398;2023-10-09T12:18:25;0.87;;;0.87;;
13230;SDS011;6681;53.254;10.398;2023-10-09T12:20:50;1.17;;;1.17;;
13230;SDS011;6681;53.254;10.398;2023-10-09T12:23:18;2.13;;;1.20;;
13230;SDS011;6681;53.254;10.398;2023-10-09T12:25:45;4.87;;;1.00;;
13230;SDS011;6681;53.254;10.398;2023-10-09T12:28:13;1.23;;;1.13;;
13230;SDS011;6681;53.254;10.398;2023-10-09T12:30:39;1.13;;;1.13;;
13230;SDS011;6681;53.254;10.398;2023-10-09T12:33:05;0.97;;;0.97;;
13230;SDS011;6681;53.254;10.398;2023-10-09T12:35:35;1.37;;;1.03;;
13230;SDS011;6681;53.254;10.398;2023-10-09T12:38:02;0.93;;;0.90;;
13230;SDS011;6681;53.254;10.398;2023-10-09T12:40:28;1.27;;;0.57;;
13230;SDS011;6681;53.254;10.398;2023-10-09T12:42:56;0.97;;;0.93;;
13230;SDS011;6681;53.254;10.398;2023-10-09T12:45:24;0.77;;;0.77;;
13230;SDS011;6681;53.254;10.398;2023-10-09T12:47:57;0.90;;;0.90;;
13230;SDS011;6681;53.254;10.398;2023-10-09T12:50:27;0.97;;;0.97;;
13230;SDS011;6681;53.254;10.398;2023-10-09T12:52:56;1.23;;;1.20;;
13230;SDS011;6681;53.254;10.398;2023-10-09T12:55:38;1.10;;;1.10;;
13230;SDS011;6681;53.254;10.398;2023-10-09T12:58:08;0.97;;;0.97;;
13230;SDS011;6681;53.254;10.398;2023-10-09T13:00:35;1.07;;;1.07;;
13230;SDS011;6681;53.254;10.398;2023-10-09T13:03:04;0.70;;;0.70;;
13230;SDS011;6681;53.254;10.398;2023-10-09T13:05:41;0.90;;;0.70;;
13230;SDS011;6681;53.254;10.398;2023-10-09T13:08:17;1.37;;;1.27;;
13230;SDS011;6681;53.254;10.398;2023-10-09T13:10:46;1.63;;;1.30;;
13230;SDS011;6681;53.254;10.398;2023-10-09T13:13:23;1.00;;;0.90;;
13230;SDS011;6681;53.254;10.398;2023-10-09T13:15:52;0.53;;;0.53;;
13230;SDS011;6681;53.254;10.398;2023-10-09T13:18:18;1.07;;;0.97;;
13230;SDS011;6681;53.254;10.398;2023-10-09T13:20:44;3.27;;;1.80;;
13230;SDS011;6681;53.254;10.398;2023-10-09T13:23:10;0.60;;;0.60;;
13230;SDS011;6681;53.254;10.398;2023-10-09T13:25:39;1.30;;;1.00;;
13230;SDS011;6681;53.254;10.398;2023-10-09T13:28:05;1.57;;;1.47;;
13230;SDS011;6681;53.254;10.398;2023-10-09T13:30:31;1.43;;;1.37;;
13230;SDS011;6681;53.254;10.398;2023-10-09T13:33:04;1.90;;;1.10;;
13230;SDS011;6681;53.254;10.398;2023-10-09T13:35:30;1.10;;;1.10;;
13230;SDS011;6681;53.254;10.398;2023-10-09T13:38:03;1.10;;;0.80;;
13230;SDS011;6681;53.254;10.398;2023-10-09T13:40:33;2.47;;;1.40;;
13230;SDS011;6681;53.254;10.398;2023-10-09T13:43:02;2.80;;;1.40;;
13230;SDS011;6681;53.254;10.398;2023-10-09T13:45:28;1.00;;;1.00;;
13230;SDS011;6681;53.254;10.398;2023-10-09T13:47:56;1.30;;;1.20;;
13230;SDS011;6681;53.254;10.398;2023-10-09T13:50:25;1.27;;;1.27;;
13230;SDS011;6681;53.254;10.398;2023-10-09T13:52:58;2.40;;;2.20;;
13230;SDS011;6681;53.254;10.398;2023-10-09T13:55:24;1.30;;;1.20;;
13230;SDS011;6681;53.254;10.398;2023-10-09T13:57:56;1.40;;;1.27;;
13230;SDS011;6681;53.254;10.398;2023-10-09T14:00:25;1.70;;;1.53;;
13230;SDS011;6681;53.254;10.398;2023-10-09T14:03:07;2.30;;;2.07;;
13230;SDS011;6681;53.254;10.398;2023-10-09T14:05:39;3.67;;;3.47;;
13230;SDS011;6681;53.254;10.398;2023-10-09T14:08:28;2.30;;;2.20;;
13230;SDS011;6681;53.254;10.398;2023-10-09T14:10:54;3.10;;;2.90;;
13230;SDS011;6681;53.254;10.398;2023-10-09T14:13:19;2.23;;;2.07;;
13230;SDS011;6681;53.254;10.398;2023-10-09T14:15:53;2.00;;;1.90;;
13230;SDS011;6681;53.254;10.398;2023-10-09T14:18:19;2.90;;;2.70;;
13230;SDS011;6681;53.254;10.398;2023-10-09T14:20:46;2.50;;;2.30;;
13230;SDS011;6681;53.254;10.398;2023-10-09T14:23:11;1.60;;;1.50;;
13230;SDS011;6681;53.254;10.398;2023-10-09T14:25:45;1.53;;;1.43;;
13230;SDS011;6681;53.254;10.398;2023-10-09T14:28:14;2.17;;;1.80;;
13230;SDS011;6681;53.254;10.398;2023-10-09T14:30:44;2.27;;;2.07;;
13230;SDS011;6681;53.254;10.398;2023-10-09T14:33:14;2.23;;;2.13;;
13230;SDS011;6681;53.254;10.398;2023-10-09T14:35:44;2.07;;;1.97;;
13230;SDS011;6681;53.254;10.398;2023-10-09T14:38:10;2.80;;;2.47;;
13230;SDS011;6681;53.254;10.398;2023-10-09T14:40:43;3.93;;;2.60;;
13230;SDS011;6681;53.254;10.398;2023-10-09T14:43:09;9.93;;;7.93;;
13230;SDS011;6681;53.254;10.398;2023-10-09T14:45:53;9.60;;;8.60;;
13230;SDS011;6681;53.254;10.398;2023-10-09T14:48:19;5.67;;;4.63;;
13230;SDS011;6681;53.254;10.398;2023-10-09T14:50:55;2.77;;;2.57;;
13230;SDS011;6681;53.254;10.398;2023-10-09T14:53:29;3.30;;;3.10;;
13230;SDS011;6681;53.254;10.398;2023-10-09T14:55:58;3.27;;;2.97;;
13230;SDS011;6681;53.254;10.398;2023-10-09T14:58:26;3.07;;;2.87;;
13230;SDS011;6681;53.254;10.398;2023-10-09T15:00:55;4.97;;;3.80;;
13230;SDS011;6681;53.254;10.398;2023-10-09T15:03:21;7.07;;;6.37;;
13230;SDS011;6681;53.254;10.398;2023-10-09T15:05:48;6.30;;;5.80;;
13230;SDS011;6681;53.254;10.398;2023-10-09T15:08:14;5.80;;;5.23;;
13230;SDS011;6681;53.254;10.398;2023-10-09T15:10:47;5.47;;;4.87;;
13230;SDS011;6681;53.254;10.398;2023-10-09T15:13:13;7.17;;;5.67;;
13230;SDS011;6681;53.254;10.398;2023-10-09T15:15:41;7.20;;;5.57;;
13230;SDS011;6681;53.254;10.398;2023-10-09T15:18:08;6.47;;;4.93;;
13230;SDS011;6681;53.254;10.398;2023-10-09T15:20:37;5.53;;;5.03;;
13230;SDS011;6681;53.254;10.398;2023-10-09T15:23:04;5.60;;;5.10;;
13230;SDS011;6681;53.254;10.398;2023-10-09T15:25:30;14.80;;;9.23;;
13230;SDS011;6681;53.254;10.398;2023-10-09T15:27:56;11.67;;;8.53;;
13230;SDS011;6681;53.254;10.398;2023-10-09T15:30:22;11.23;;;9.33;;
13230;SDS011;6681;53.254;10.398;2023-10-09T15:32:48;13.03;;;9.03;;
13230;SDS011;6681;53.254;10.398;2023-10-09T15:35:16;8.93;;;6.47;;
13230;SDS011;6681;53.254;10.398;2023-10-09T15:37:43;5.83;;;5.13;;
13230;SDS011;6681;53.254;10.398;2023-10-09T15:40:11;4.73;;;4.33;;
13230;SDS011;6681;53.254;10.398;2023-10-09T15:42:48;4.90;;;4.47;;
13230;SDS011;6681;53.254;10.398;2023-10-09T15:45:15;3.93;;;3.60;;
13230;SDS011;6681;53.254;10.398;2023-10-09T15:47:46;4.30;;;3.90;;
13230;SDS011;6681;53.254;10.398;2023-10-09T15:50:12;4.47;;;4.07;;
13230;SDS011;6681;53.254;10.398;2023-10-09T15:52:40;6.27;;;5.53;;